Terminal Aerodrome Forecast
Issued by NWS

Home | Current Version | Previous Version | Text Only | Print | Product List | Glossary On
Versions: 1 2 3 4 5 6 7 8 9 10 11 12 13 14 15 16 17 18 19 20 21
000
FTUS44 KSJT 031700
TAFJCT
TAF
KJCT 031720Z 0318/0418 17011G17KT P6SM BKN040
     FM040200 14007KT P6SM BKN250
     FM040800 16005KT P6SM OVC015
     FM041700 18007G13KT P6SM OVC050=

USA.gov is the U.S. government's official web portal to all federal, state and local government web resources and services.